createdAt,value
2023-01-05T00:01:10.208Z,12.43
2023-01-05T00:03:37.476Z,12.53
2023-01-05T00:06:06.314Z,12.46
2023-01-05T00:08:36.992Z,12.59
2023-01-05T00:11:29.528Z,12.51
2023-01-05T00:14:14.355Z,12.52
2023-01-05T00:16:59.347Z,12.53
2023-01-05T00:19:44.183Z,12.55
2023-01-05T00:22:31.563Z,12.52
2023-01-05T00:25:13.708Z,12.66
2023-01-05T00:27:41.992Z,12.61
2023-01-05T00:30:10.367Z,12.67
2023-01-05T00:32:36.758Z,12.67
2023-01-05T00:35:03.937Z,12.71
2023-01-05T00:37:32.947Z,12.79
2023-01-05T00:39:59.651Z,12.87
2023-01-05T00:42:26.710Z,12.86
2023-01-05T00:44:53.724Z,12.96
2023-01-05T00:47:20.153Z,12.90
2023-01-05T00:49:46.520Z,12.99
2023-01-05T00:52:12.883Z,12.81
2023-01-05T00:54:39.333Z,12.87
2023-01-05T00:57:07.287Z,12.85
2023-01-05T00:59:33.736Z,13.07
2023-01-05T01:02:00.271Z,12.90
2023-01-05T01:04:26.844Z,12.75
2023-01-05T01:06:54.561Z,12.77
2023-01-05T01:09:21.516Z,12.73
2023-01-05T01:11:48.010Z,12.75
2023-01-05T01:14:14.852Z,12.68
2023-01-05T01:16:42.386Z,12.53
2023-01-05T01:19:14.247Z,12.51
2023-01-05T01:21:40.721Z,12.59
2023-01-05T01:24:07.642Z,12.47
2023-01-05T01:26:34.214Z,12.46
2023-01-05T01:29:00.599Z,12.49
2023-01-05T01:31:27.022Z,12.62
2023-01-05T01:33:53.372Z,12.60
2023-01-05T01:36:20.480Z,12.57
2023-01-05T01:38:46.938Z,12.58
2023-01-05T01:41:13.987Z,12.57
2023-01-05T01:43:46.596Z,12.55
2023-01-05T01:46:14.804Z,12.63
2023-01-05T01:48:46.723Z,12.70
2023-01-05T01:51:22.853Z,12.54
2023-01-05T01:53:54.310Z,12.64
2023-01-05T01:56:23.291Z,12.66
2023-01-05T01:58:50.400Z,12.59
2023-01-05T02:01:17.420Z,12.72
2023-01-05T02:03:44.754Z,12.63
2023-01-05T02:06:11.834Z,12.66
2023-01-05T02:08:38.272Z,12.77
2023-01-05T02:11:29.445Z,12.71
2023-01-05T02:14:01.763Z,12.55
2023-01-05T02:16:46.960Z,12.58
2023-01-05T02:19:37.687Z,12.57
2023-01-05T02:22:16.234Z,12.60
2023-01-05T02:25:36.792Z,12.52
2023-01-05T02:28:33.887Z,12.72
2023-01-05T02:31:19.501Z,12.77
2023-01-05T02:34:02.956Z,12.78
2023-01-05T02:36:53.926Z,12.52
2023-01-05T02:39:45.475Z,12.53
2023-01-05T02:42:19.222Z,12.54
2023-01-05T02:44:46.147Z,12.63
2023-01-05T02:47:27.914Z,12.61
2023-01-05T02:50:09.124Z,12.67
2023-01-05T02:52:42.606Z,12.44
2023-01-05T02:55:13.715Z,12.49
2023-01-05T02:57:50.580Z,12.49
2023-01-05T03:00:22.662Z,12.40
2023-01-05T03:02:52.707Z,12.41
2023-01-05T03:05:51.811Z,12.49
2023-01-05T03:08:26.397Z,12.43
2023-01-05T03:11:23.996Z,12.32
2023-01-05T03:14:03.585Z,12.35
2023-01-05T03:16:35.421Z,12.36
2023-01-05T03:19:23.395Z,12.36
2023-01-05T03:22:10.144Z,12.24
2023-01-05T03:24:57.575Z,12.22
2023-01-05T03:27:43.468Z,12.16
2023-01-05T03:30:30.331Z,12.19
2023-01-05T03:33:22.954Z,12.17
2023-01-05T03:35:54.838Z,12.07
2023-01-05T03:38:27.011Z,12.02
2023-01-05T03:40:57.476Z,12.12
2023-01-05T03:43:24.905Z,12.08
2023-01-05T03:45:57.260Z,12.05
2023-01-05T03:48:27.087Z,12.08
2023-01-05T03:50:54.160Z,12.19
2023-01-05T03:53:20.776Z,12.07
2023-01-05T03:55:47.117Z,12.06
2023-01-05T03:58:13.527Z,12.11
2023-01-05T04:00:39.961Z,12.02
2023-01-05T04:03:06.610Z,12.18
2023-01-05T04:05:33.131Z,12.22
2023-01-05T04:07:59.615Z,12.13
2023-01-05T04:10:26.071Z,12.12
2023-01-05T04:12:54.104Z,12.20
2023-01-05T04:15:20.486Z,12.20
2023-01-05T04:17:46.911Z,12.11
2023-01-05T04:20:13.333Z,12.19
2023-01-05T04:22:39.757Z,12.02
2023-01-05T04:25:06.751Z,12.05
2023-01-05T04:27:33.174Z,12.02
2023-01-05T04:29:59.600Z,12.15
2023-01-05T04:32:26.281Z,12.15
2023-01-05T04:34:52.671Z,12.15
2023-01-05T04:37:19.103Z,12.10
2023-01-05T04:39:45.558Z,12.15
2023-01-05T04:42:11.951Z,12.24
2023-01-05T04:44:38.424Z,12.26
2023-01-05T04:47:04.918Z,12.16
2023-01-05T04:49:31.381Z,12.33
2023-01-05T04:51:57.724Z,12.11
2023-01-05T04:54:24.120Z,12.26
2023-01-05T04:56:50.487Z,12.23
2023-01-05T04:59:16.982Z,11.99
2023-01-05T05:01:43.564Z,12.10
2023-01-05T05:04:10.135Z,12.11
2023-01-05T05:06:36.491Z,11.93
2023-01-05T05:09:03.583Z,12.24
2023-01-05T05:11:30.038Z,12.08
2023-01-05T05:13:56.462Z,12.10
2023-01-05T05:16:22.900Z,12.13
2023-01-05T05:18:49.419Z,12.28
2023-01-05T05:21:15.890Z,12.20
2023-01-05T05:23:42.293Z,12.22
2023-01-05T05:26:08.736Z,12.31
2023-01-05T05:28:35.360Z,12.04
2023-01-05T05:31:02.163Z,12.18
2023-01-05T05:33:28.600Z,12.22
2023-01-05T05:35:55.036Z,12.15
2023-01-05T05:38:21.391Z,12.06
2023-01-05T05:40:50.620Z,12.12
2023-01-05T05:43:17.247Z,12.13
2023-01-05T05:45:50.097Z,12.09
2023-01-05T05:48:17.592Z,12.11
2023-01-05T05:50:44.740Z,12.04
2023-01-05T05:53:11.181Z,12.02
2023-01-05T05:55:37.548Z,11.99
2023-01-05T05:58:04.007Z,11.85
2023-01-05T06:00:30.571Z,11.71
2023-01-05T06:02:56.969Z,11.92
2023-01-05T06:05:23.574Z,11.86
2023-01-05T06:07:50.066Z,11.84
2023-01-05T06:10:16.575Z,11.85
2023-01-05T06:12:43.113Z,11.88
2023-01-05T06:15:10.162Z,11.88
2023-01-05T06:17:36.671Z,12.09
2023-01-05T06:20:03.395Z,12.08
2023-01-05T06:22:29.731Z,11.93
2023-01-05T06:24:56.162Z,11.86
2023-01-05T06:27:22.573Z,11.92
2023-01-05T06:29:48.931Z,12.12
2023-01-05T06:32:15.319Z,12.05
2023-01-05T06:34:41.716Z,11.94
2023-01-05T06:37:08.159Z,12.04
2023-01-05T06:39:34.524Z,11.72
2023-01-05T06:42:00.933Z,11.73
2023-01-05T06:44:27.370Z,11.64
2023-01-05T06:46:53.805Z,11.60
2023-01-05T06:49:20.207Z,11.51
2023-01-05T06:51:46.698Z,11.61
2023-01-05T06:54:13.238Z,11.44
2023-01-05T06:56:39.767Z,11.21
2023-01-05T06:59:06.163Z,11.35
2023-01-05T07:01:32.737Z,11.05
2023-01-05T07:03:59.394Z,11.19
2023-01-05T07:06:25.836Z,11.17
2023-01-05T07:08:52.247Z,11.05
2023-01-05T07:11:18.626Z,11.01
2023-01-05T07:13:49.738Z,11.16
2023-01-05T07:16:16.981Z,11.04
2023-01-05T07:18:43.471Z,10.95
2023-01-05T07:21:09.937Z,10.95
2023-01-05T07:23:38.886Z,11.07
2023-01-05T07:26:06.420Z,11.00
2023-01-05T07:28:33.853Z,10.91
2023-01-05T07:31:00.438Z,10.97
2023-01-05T07:33:27.036Z,10.96
2023-01-05T07:35:53.458Z,10.95
2023-01-05T07:38:19.862Z,11.04
2023-01-05T07:40:46.347Z,10.98
2023-01-05T07:43:12.716Z,10.84
2023-01-05T07:45:39.795Z,11.06
2023-01-05T07:48:06.438Z,11.08
2023-01-05T07:50:32.868Z,11.08
2023-01-05T07:52:59.779Z,11.31
2023-01-05T07:55:26.275Z,11.20
2023-01-05T07:57:52.805Z,11.13
2023-01-05T08:00:19.509Z,11.10
2023-01-05T08:02:46.251Z,11.24
2023-01-05T08:05:12.746Z,11.22
2023-01-05T08:07:39.239Z,11.47
2023-01-05T08:10:25.213Z,11.34
2023-01-05T08:13:10.092Z,11.41
2023-01-05T08:15:36.510Z,11.24
2023-01-05T08:18:03.001Z,11.34
2023-01-05T08:20:29.456Z,11.40
2023-01-05T08:22:55.882Z,11.45
2023-01-05T08:25:22.238Z,11.51
2023-01-05T08:27:48.665Z,11.46
2023-01-05T08:30:15.376Z,11.51
2023-01-05T08:32:42.423Z,11.40
2023-01-05T08:35:09.297Z,11.44
2023-01-05T08:37:35.783Z,11.54
2023-01-05T08:40:02.263Z,11.61
2023-01-05T08:42:28.701Z,11.67
2023-01-05T08:44:55.041Z,11.71
2023-01-05T08:47:26.474Z,11.76
2023-01-05T08:49:54.482Z,11.79
2023-01-05T08:52:23.155Z,11.72
2023-01-05T08:54:49.878Z,11.73
2023-01-05T08:57:16.345Z,11.85
2023-01-05T08:59:42.763Z,11.72
2023-01-05T09:02:13.087Z,12.05
2023-01-05T09:04:39.707Z,11.97
2023-01-05T09:07:06.221Z,12.01
2023-01-05T09:09:32.768Z,12.05
2023-01-05T09:11:59.189Z,11.81
2023-01-05T09:14:25.743Z,12.18
2023-01-05T09:17:08.536Z,12.01
2023-01-05T09:19:36.312Z,12.00
2023-01-05T09:22:02.945Z,12.00
2023-01-05T09:24:29.421Z,12.09
2023-01-05T09:26:56.578Z,12.09
2023-01-05T09:29:23.142Z,12.26
2023-01-05T09:31:49.627Z,12.17
2023-01-05T09:34:16.378Z,12.23
2023-01-05T09:36:42.773Z,12.22
2023-01-05T09:39:10.048Z,11.90
2023-01-05T09:41:47.154Z,11.78
2023-01-05T09:44:39.227Z,11.85
2023-01-05T09:47:26.091Z,12.08
2023-01-05T09:49:54.498Z,12.05
2023-01-05T09:52:22.748Z,12.40
2023-01-05T09:54:49.264Z,12.30
2023-01-05T09:57:19.177Z,12.29
2023-01-05T09:59:52.369Z,12.49
2023-01-05T10:02:29.649Z,12.42
2023-01-05T10:04:58.180Z,12.46
2023-01-05T10:07:38.021Z,12.68
2023-01-05T10:10:17.499Z,12.93
2023-01-05T10:13:03.676Z,12.89
2023-01-05T10:15:39.729Z,12.90
2023-01-05T10:18:15.225Z,12.85
2023-01-05T10:21:11.857Z,12.93
2023-01-05T10:23:41.347Z,12.73
2023-01-05T10:26:28.318Z,12.73
2023-01-05T10:29:11.242Z,12.81
2023-01-05T10:31:53.193Z,12.76
2023-01-05T10:34:36.717Z,12.61
2023-01-05T10:37:21.070Z,12.66
2023-01-05T10:40:14.911Z,12.70
2023-01-05T10:43:18.483Z,12.93
2023-01-05T10:46:11.220Z,12.95
2023-01-05T10:48:35.583Z,13.07
2023-01-05T10:51:03.848Z,13.00
2023-01-05T10:53:35.931Z,13.03
2023-01-05T10:56:23.019Z,13.15
2023-01-05T10:59:07.247Z,13.03
2023-01-05T11:01:35.711Z,13.19
2023-01-05T11:07:04.220Z,13.19
2023-01-05T11:09:30.654Z,13.36
2023-01-05T11:11:59.653Z,13.28
2023-01-05T11:14:27.987Z,13.17
2023-01-05T11:17:00.832Z,13.37
2023-01-05T11:19:41.176Z,13.21
2023-01-05T11:22:30.487Z,13.17
2023-01-05T11:25:30.652Z,13.20
2023-01-05T11:28:16.317Z,13.13
2023-01-05T11:30:48.409Z,13.08
2023-01-05T11:33:25.824Z,13.09
2023-01-05T11:35:52.854Z,13.15
2023-01-05T11:38:28.130Z,13.17
2023-01-05T11:40:57.341Z,13.20
2023-01-05T11:43:27.963Z,13.34
2023-01-05T11:45:58.322Z,13.36
2023-01-05T11:48:28.954Z,13.46
2023-01-05T11:50:57.217Z,13.50
2023-01-05T11:53:34.461Z,13.51
2023-01-05T11:56:19.292Z,13.53
2023-01-05T11:58:48.068Z,13.57
2023-01-05T12:01:33.142Z,13.65
2023-01-05T12:04:24.142Z,13.57
2023-01-05T12:07:02.382Z,13.57
2023-01-05T12:09:41.923Z,13.76
2023-01-05T12:12:26.434Z,14.05
2023-01-05T12:15:01.901Z,14.01
2023-01-05T12:17:51.286Z,13.81
2023-01-05T12:20:53.890Z,14.01
2023-01-05T12:23:47.735Z,13.84
2023-01-05T12:26:35.167Z,13.73
2023-01-05T12:35:43.435Z,13.15
2023-01-05T12:38:35.525Z,13.11
2023-01-05T12:41:53.410Z,12.90
2023-01-05T12:44:47.270Z,12.88
2023-01-05T12:47:38.535Z,12.60
2023-01-05T12:50:23.208Z,12.82
2023-01-05T12:52:59.765Z,12.83
2023-01-05T12:55:36.877Z,12.72
2023-01-05T12:58:29.184Z,12.94
2023-01-05T13:00:57.623Z,13.02
2023-01-05T13:03:31.899Z,12.96
2023-01-05T13:06:21.807Z,13.13
2023-01-05T13:08:54.774Z,12.93
2023-01-05T13:11:46.433Z,12.90
2023-01-05T13:14:19.999Z,12.66
2023-01-05T13:16:56.036Z,12.50
2023-01-05T13:19:30.875Z,12.60
2023-01-05T13:21:58.936Z,12.50
2023-01-05T13:24:34.586Z,12.79
2023-01-05T13:27:02.453Z,12.55
2023-01-05T13:29:36.733Z,12.80
2023-01-05T13:32:21.567Z,12.69
2023-01-05T13:35:25.645Z,12.65
2023-01-05T13:38:39.101Z,12.61
2023-01-05T13:41:18.867Z,12.59
2023-01-05T13:44:15.962Z,12.57
2023-01-05T13:47:46.084Z,12.90
2023-01-05T13:50:34.511Z,13.05
2023-01-05T13:56:02.121Z,13.11
2023-01-05T13:58:34.561Z,13.12
2023-01-05T14:01:04.649Z,13.18
2023-01-05T14:03:37.532Z,13.21
2023-01-05T14:06:14.629Z,13.26
2023-01-05T14:08:48.737Z,13.20
2023-01-05T14:11:18.455Z,13.16
2023-01-05T14:13:47.665Z,13.23
2023-01-05T14:16:36.988Z,13.29
2023-01-05T14:19:14.188Z,13.14
2023-01-05T14:22:04.773Z,13.12
2023-01-05T14:24:49.556Z,13.00
2023-01-05T14:27:16.114Z,13.05
2023-01-05T14:29:45.595Z,13.11
2023-01-05T14:32:26.154Z,13.00
2023-01-05T14:35:01.501Z,13.02
2023-01-05T14:37:35.791Z,13.14
2023-01-05T14:40:13.484Z,13.34
2023-01-05T14:42:40.137Z,13.15
2023-01-05T14:45:18.819Z,13.00
2023-01-05T14:47:50.940Z,13.13
2023-01-05T14:50:41.097Z,13.09
2023-01-05T14:53:14.613Z,13.10
2023-01-05T14:55:53.016Z,13.09
2023-01-05T14:58:37.871Z,13.16
2023-01-05T15:01:28.608Z,13.06
2023-01-05T15:04:18.642Z,13.22
2023-01-05T15:07:13.676Z,12.91
2023-01-05T15:09:56.049Z,13.04
2023-01-05T15:12:32.171Z,12.89
2023-01-05T15:15:05.984Z,13.09
2023-01-05T15:17:54.285Z,12.99
2023-01-05T15:20:46.143Z,12.82
2023-01-05T15:23:24.731Z,12.74
2023-01-05T15:26:17.139Z,12.74
2023-01-05T15:29:00.959Z,12.85
2023-01-05T15:31:51.744Z,12.80
2023-01-05T15:34:30.599Z,12.66
2023-01-05T15:37:11.461Z,12.60
2023-01-05T15:39:55.361Z,12.52
2023-01-05T15:42:26.577Z,12.37
2023-01-05T15:44:54.834Z,12.53
2023-01-05T15:47:24.560Z,12.43
2023-01-05T15:49:56.469Z,12.40
2023-01-05T15:52:34.202Z,12.36
2023-01-05T15:55:12.342Z,12.32
2023-01-05T15:57:38.889Z,12.27
2023-01-05T16:00:20.776Z,12.32
2023-01-05T16:02:47.208Z,12.30
2023-01-05T16:05:19.060Z,12.43
2023-01-05T16:08:06.193Z,12.51
2023-01-05T16:10:42.983Z,12.39
2023-01-05T16:13:39.912Z,12.38
2023-01-05T16:16:24.814Z,12.29
2023-01-05T16:19:04.395Z,12.30
2023-01-05T16:21:42.895Z,12.26
2023-01-05T16:24:22.989Z,12.22
2023-01-05T16:26:49.512Z,12.34
2023-01-05T16:29:33.263Z,12.34
2023-01-05T16:31:59.801Z,12.25
2023-01-05T16:34:31.169Z,12.31
2023-01-05T16:37:15.882Z,12.18
2023-01-05T16:39:44.310Z,12.15
2023-01-05T16:42:40.277Z,12.13
2023-01-05T16:45:17.067Z,12.13
2023-01-05T16:47:43.811Z,12.23
2023-01-05T16:50:19.470Z,12.27
2023-01-05T16:52:52.943Z,12.19
2023-01-05T16:55:28.377Z,12.32
2023-01-05T16:57:55.803Z,12.19
2023-01-05T17:00:28.259Z,12.28
2023-01-05T17:02:59.233Z,12.28
2023-01-05T17:05:34.657Z,12.20
2023-01-05T17:08:19.305Z,12.18
2023-01-05T17:10:46.080Z,12.22
2023-01-05T17:13:20.752Z,12.19
2023-01-05T17:15:49.537Z,12.25
2023-01-05T17:20:50.687Z,12.05
2023-01-05T17:23:32.319Z,12.06
2023-01-05T17:26:03.439Z,12.09
2023-01-05T17:28:29.841Z,11.96
2023-01-05T17:30:56.512Z,11.96
2023-01-05T17:33:22.948Z,11.98
2023-01-05T17:35:49.886Z,11.95
2023-01-05T17:38:16.342Z,11.95
2023-01-05T17:40:43.111Z,11.84
2023-01-05T17:43:09.643Z,11.79
2023-01-05T17:45:40.619Z,11.77
2023-01-05T17:48:07.217Z,11.65
2023-01-05T17:50:33.981Z,11.73
2023-01-05T17:53:02.019Z,11.82
2023-01-05T17:55:29.220Z,11.83
2023-01-05T17:57:57.591Z,11.80
2023-01-05T18:00:26.450Z,11.81
2023-01-05T18:02:54.304Z,11.80
2023-01-05T18:05:21.878Z,11.75
2023-01-05T18:07:49.114Z,11.60
2023-01-05T18:10:20.706Z,11.71
2023-01-05T18:12:47.478Z,11.76
2023-01-05T18:15:14.495Z,11.82
2023-01-05T18:17:41.280Z,11.75
2023-01-05T18:20:08.839Z,11.80
2023-01-05T18:22:37.396Z,11.80
2023-01-05T18:27:36.072Z,11.96
2023-01-05T18:30:04.544Z,12.01
2023-01-05T18:35:05.663Z,12.16
2023-01-05T18:37:35.740Z,11.93
2023-01-05T18:40:02.559Z,11.98
2023-01-05T18:42:29.201Z,11.91
2023-01-05T18:44:55.630Z,11.89
2023-01-05T18:47:22.025Z,12.18
2023-01-05T18:49:48.381Z,12.04
2023-01-05T18:52:14.804Z,11.94
2023-01-05T18:54:41.542Z,11.84
2023-01-05T18:57:07.962Z,11.78
2023-01-05T18:59:34.614Z,11.72
2023-01-05T19:02:01.067Z,11.67
2023-01-05T19:04:27.696Z,11.69
2023-01-05T19:06:54.145Z,11.74
2023-01-05T19:09:20.606Z,11.60
2023-01-05T19:11:47.935Z,11.63
2023-01-05T19:14:15.348Z,11.63
2023-01-05T19:16:42.026Z,11.55
2023-01-05T19:19:11.775Z,11.54
2023-01-05T19:21:40.802Z,11.50
2023-01-05T19:24:13.362Z,11.46
2023-01-05T19:26:39.762Z,11.41
2023-01-05T19:29:06.356Z,11.45
2023-01-05T19:31:33.964Z,11.43
2023-01-05T19:34:00.373Z,11.43
2023-01-05T19:36:32.256Z,11.34
2023-01-05T19:39:00.826Z,11.30
2023-01-05T19:41:28.095Z,11.27
2023-01-05T19:43:56.055Z,11.22
2023-01-05T19:46:24.293Z,11.19
2023-01-05T19:48:50.952Z,11.21
2023-01-05T19:51:23.387Z,11.10
2023-01-05T19:53:58.949Z,11.16
2023-01-05T19:56:30.427Z,11.14
2023-01-05T19:59:02.179Z,11.19
2023-01-05T20:01:31.026Z,11.20
2023-01-05T20:03:57.966Z,11.19
2023-01-05T20:06:26.950Z,11.15
2023-01-05T20:08:55.438Z,11.17
2023-01-05T20:11:45.040Z,11.10
2023-01-05T20:14:20.708Z,11.01
2023-01-05T20:16:51.254Z,10.88
2023-01-05T20:19:19.417Z,10.95
2023-01-05T20:21:46.943Z,10.97
2023-01-05T20:24:17.378Z,11.11
2023-01-05T20:26:45.823Z,10.93
2023-01-05T20:29:14.098Z,10.95
2023-01-05T20:31:46.114Z,10.82
2023-01-05T20:34:19.113Z,10.76
2023-01-05T20:36:45.928Z,10.71
2023-01-05T20:39:15.965Z,10.56
2023-01-05T20:41:45.784Z,10.47
2023-01-05T20:44:13.414Z,10.39
2023-01-05T20:46:42.698Z,10.24
2023-01-05T20:49:09.792Z,10.24
2023-01-05T20:51:36.954Z,10.12
2023-01-05T20:54:05.825Z,10.06
2023-01-05T20:56:38.270Z,9.92
2023-01-05T20:59:08.171Z,9.86
2023-01-05T21:01:36.014Z,9.79
2023-01-05T21:04:04.156Z,9.82
2023-01-05T21:06:30.567Z,9.82
2023-01-05T21:08:57.057Z,9.91
2023-01-05T21:11:25.913Z,9.94
2023-01-05T21:13:54.535Z,9.98
2023-01-05T21:16:30.518Z,10.06
2023-01-05T21:19:00.355Z,10.15
2023-01-05T21:21:29.133Z,10.27
2023-01-05T21:23:55.797Z,10.37
2023-01-05T21:26:22.700Z,10.34
2023-01-05T21:28:51.359Z,10.39
2023-01-05T21:31:20.443Z,10.46
2023-01-05T21:33:46.892Z,10.47
2023-01-05T21:36:19.207Z,10.47
2023-01-05T21:39:01.444Z,10.46
2023-01-05T21:41:48.597Z,10.51
2023-01-05T21:44:15.770Z,10.56
2023-01-05T21:46:43.075Z,10.62
2023-01-05T21:49:10.894Z,10.74
2023-01-05T21:51:55.985Z,10.83
2023-01-05T21:54:41.260Z,10.77
2023-01-05T21:57:08.255Z,10.80
2023-01-05T21:59:34.960Z,10.84
2023-01-05T22:02:01.512Z,10.83
2023-01-05T22:04:27.903Z,10.78
2023-01-05T22:06:54.888Z,10.74
2023-01-05T22:09:21.366Z,10.75
2023-01-05T22:11:47.750Z,10.78
2023-01-05T22:14:14.731Z,10.80
2023-01-05T22:16:41.309Z,10.81
2023-01-05T22:19:07.768Z,10.72
2023-01-05T22:21:34.159Z,10.72
2023-01-05T22:24:00.634Z,10.73
2023-01-05T22:26:26.983Z,10.67
2023-01-05T22:28:53.749Z,10.71
2023-01-05T22:31:30.424Z,10.62
2023-01-05T22:33:59.528Z,10.54
2023-01-05T22:36:27.765Z,10.53
2023-01-05T22:38:55.393Z,10.55
2023-01-05T22:41:24.704Z,10.67
2023-01-05T22:43:51.735Z,10.61
2023-01-05T22:46:27.645Z,10.74
2023-01-05T22:48:55.723Z,10.77
2023-01-05T22:51:24.591Z,10.79
2023-01-05T22:53:51.821Z,10.75
2023-01-05T22:56:19.903Z,10.82
2023-01-05T22:58:46.468Z,10.71
2023-01-05T23:01:21.770Z,10.75
2023-01-05T23:03:48.858Z,10.78
2023-01-05T23:06:15.465Z,10.76
2023-01-05T23:08:42.691Z,10.87
2023-01-05T23:11:17.865Z,10.81
2023-01-05T23:13:45.048Z,10.82
2023-01-05T23:16:11.586Z,10.76
2023-01-05T23:18:39.428Z,10.77
2023-01-05T23:21:09.355Z,10.81
2023-01-05T23:23:36.497Z,10.89
2023-01-05T23:26:04.283Z,10.92
2023-01-05T23:28:31.665Z,11.09
2023-01-05T23:30:59.550Z,11.04
2023-01-05T23:33:28.429Z,11.07
2023-01-05T23:35:55.608Z,11.10
2023-01-05T23:38:23.498Z,11.09
2023-01-05T23:40:51.791Z,11.15
2023-01-05T23:43:20.648Z,11.17
2023-01-05T23:45:47.655Z,11.13
2023-01-05T23:48:15.172Z,11.23
2023-01-05T23:50:43.668Z,11.26
2023-01-05T23:53:11.149Z,11.41
2023-01-05T23:55:38.431Z,11.32
2023-01-05T23:58:05.295Z,11.43
